sensor_id;sensor_type;location;lat;lon;timestamp;P1;durP1;ratioP1;P2;durP2;ratioP2
61036;SDS011;57313;47.040;15.498;2022-09-24T00:00:44;5.82;;;2.15;;
61036;SDS011;57313;47.040;15.498;2022-09-24T00:03:11;7.00;;;2.55;;
61036;SDS011;57313;47.040;15.498;2022-09-24T00:05:39;6.47;;;2.42;;
61036;SDS011;57313;47.040;15.498;2022-09-24T00:08:08;7.93;;;2.85;;
61036;SDS011;57313;47.040;15.498;2022-09-24T00:10:36;7.07;;;2.47;;
61036;SDS011;57313;47.040;15.498;2022-09-24T00:13:04;7.60;;;2.53;;
61036;SDS011;57313;47.040;15.498;2022-09-24T00:15:36;12.27;;;2.47;;
61036;SDS011;57313;47.040;15.498;2022-09-24T00:18:04;7.28;;;2.85;;
61036;SDS011;57313;47.040;15.498;2022-09-24T00:20:32;7.03;;;2.45;;
61036;SDS011;57313;47.040;15.498;2022-09-24T00:23:00;5.88;;;2.10;;
61036;SDS011;57313;47.040;15.498;2022-09-24T00:25:28;7.15;;;2.53;;
61036;SDS011;57313;47.040;15.498;2022-09-24T00:27:56;6.88;;;2.10;;
61036;SDS011;57313;47.040;15.498;2022-09-24T00:30:23;6.00;;;2.47;;
61036;SDS011;57313;47.040;15.498;2022-09-24T00:32:52;7.68;;;2.45;;
61036;SDS011;57313;47.040;15.498;2022-09-24T00:35:20;6.32;;;2.47;;
61036;SDS011;57313;47.040;15.498;2022-09-24T00:37:47;8.55;;;3.00;;
61036;SDS011;57313;47.040;15.498;2022-09-24T00:40:15;5.65;;;2.17;;
61036;SDS011;57313;47.040;15.498;2022-09-24T00:42:42;6.80;;;2.42;;
61036;SDS011;57313;47.040;15.498;2022-09-24T00:45:09;7.10;;;2.55;;
61036;SDS011;57313;47.040;15.498;2022-09-24T00:47:38;6.90;;;2.63;;
61036;SDS011;57313;47.040;15.498;2022-09-24T00:50:11;7.22;;;2.50;;
61036;SDS011;57313;47.040;15.498;2022-09-24T00:52:47;6.05;;;2.20;;
61036;SDS011;57313;47.040;15.498;2022-09-24T00:55:17;6.53;;;2.47;;
61036;SDS011;57313;47.040;15.498;2022-09-24T00:57:45;7.30;;;2.50;;
61036;SDS011;57313;47.040;15.498;2022-09-24T01:00:14;6.80;;;2.33;;
61036;SDS011;57313;47.040;15.498;2022-09-24T01:02:43;7.97;;;2.50;;
61036;SDS011;57313;47.040;15.498;2022-09-24T01:05:16;5.88;;;2.25;;
61036;SDS011;57313;47.040;15.498;2022-09-24T01:07:43;8.20;;;2.78;;
61036;SDS011;57313;47.040;15.498;2022-09-24T01:10:11;7.80;;;2.78;;
61036;SDS011;57313;47.040;15.498;2022-09-24T01:12:40;9.90;;;2.75;;
61036;SDS011;57313;47.040;15.498;2022-09-24T01:15:16;6.35;;;2.33;;
61036;SDS011;57313;47.040;15.498;2022-09-24T01:17:51;7.15;;;2.20;;
61036;SDS011;57313;47.040;15.498;2022-09-24T01:23:44;7.15;;;2.63;;
61036;SDS011;57313;47.040;15.498;2022-09-24T01:26:36;8.25;;;2.92;;
61036;SDS011;57313;47.040;15.498;2022-09-24T01:29:27;6.70;;;2.83;;
61036;SDS011;57313;47.040;15.498;2022-09-24T01:32:05;7.07;;;2.78;;
61036;SDS011;57313;47.040;15.498;2022-09-24T01:34:36;6.97;;;2.60;;
61036;SDS011;57313;47.040;15.498;2022-09-24T01:37:07;5.55;;;2.35;;
61036;SDS011;57313;47.040;15.498;2022-09-24T01:39:36;5.97;;;2.30;;
61036;SDS011;57313;47.040;15.498;2022-09-24T01:42:04;6.75;;;2.42;;
61036;SDS011;57313;47.040;15.498;2022-09-24T01:44:35;7.22;;;2.67;;
61036;SDS011;57313;47.040;15.498;2022-09-24T01:47:04;8.27;;;2.90;;
61036;SDS011;57313;47.040;15.498;2022-09-24T01:49:32;6.72;;;2.30;;
61036;SDS011;57313;47.040;15.498;2022-09-24T01:51:59;8.25;;;2.80;;
61036;SDS011;57313;47.040;15.498;2022-09-24T01:54:33;7.55;;;3.10;;
61036;SDS011;57313;47.040;15.498;2022-09-24T01:57:06;6.35;;;2.33;;
61036;SDS011;57313;47.040;15.498;2022-09-24T01:59:41;6.28;;;2.35;;
61036;SDS011;57313;47.040;15.498;2022-09-24T02:02:15;7.78;;;2.95;;
61036;SDS011;57313;47.040;15.498;2022-09-24T02:04:50;8.02;;;2.80;;
61036;SDS011;57313;47.040;15.498;2022-09-24T02:07:23;6.57;;;2.60;;
61036;SDS011;57313;47.040;15.498;2022-09-24T02:09:56;5.65;;;2.17;;
61036;SDS011;57313;47.040;15.498;2022-09-24T02:12:24;6.80;;;2.33;;
61036;SDS011;57313;47.040;15.498;2022-09-24T02:14:58;7.35;;;2.35;;
61036;SDS011;57313;47.040;15.498;2022-09-24T02:17:33;5.70;;;2.15;;
61036;SDS011;57313;47.040;15.498;2022-09-24T02:20:04;6.22;;;2.35;;
61036;SDS011;57313;47.040;15.498;2022-09-24T02:22:36;6.50;;;2.70;;
61036;SDS011;57313;47.040;15.498;2022-09-24T02:25:05;6.18;;;2.15;;
61036;SDS011;57313;47.040;15.498;2022-09-24T02:27:37;7.85;;;2.60;;
61036;SDS011;57313;47.040;15.498;2022-09-24T02:30:08;6.90;;;2.47;;
61036;SDS011;57313;47.040;15.498;2022-09-24T02:32:38;7.50;;;2.40;;
61036;SDS011;57313;47.040;15.498;2022-09-24T02:35:07;5.70;;;2.17;;
61036;SDS011;57313;47.040;15.498;2022-09-24T02:37:37;5.88;;;2.30;;
61036;SDS011;57313;47.040;15.498;2022-09-24T02:40:06;5.68;;;2.28;;
61036;SDS011;57313;47.040;15.498;2022-09-24T02:42:37;6.40;;;2.33;;
61036;SDS011;57313;47.040;15.498;2022-09-24T02:45:08;5.93;;;2.10;;
61036;SDS011;57313;47.040;15.498;2022-09-24T02:47:36;6.80;;;2.45;;
61036;SDS011;57313;47.040;15.498;2022-09-24T02:50:04;7.78;;;2.80;;
61036;SDS011;57313;47.040;15.498;2022-09-24T02:52:32;7.13;;;2.60;;
61036;SDS011;57313;47.040;15.498;2022-09-24T02:54:59;6.60;;;2.35;;
61036;SDS011;57313;47.040;15.498;2022-09-24T02:57:27;7.55;;;2.80;;
61036;SDS011;57313;47.040;15.498;2022-09-24T02:59:54;7.68;;;2.75;;
61036;SDS011;57313;47.040;15.498;2022-09-24T03:02:24;7.78;;;3.10;;
61036;SDS011;57313;47.040;15.498;2022-09-24T03:04:52;6.45;;;2.50;;
61036;SDS011;57313;47.040;15.498;2022-09-24T03:07:20;6.57;;;2.70;;
61036;SDS011;57313;47.040;15.498;2022-09-24T03:09:47;9.35;;;2.75;;
61036;SDS011;57313;47.040;15.498;2022-09-24T03:12:15;7.72;;;3.08;;
61036;SDS011;57313;47.040;15.498;2022-09-24T03:14:42;6.97;;;2.63;;
61036;SDS011;57313;47.040;15.498;2022-09-24T03:17:09;7.75;;;2.80;;
61036;SDS011;57313;47.040;15.498;2022-09-24T03:19:38;5.82;;;2.20;;
61036;SDS011;57313;47.040;15.498;2022-09-24T03:22:06;7.00;;;2.80;;
61036;SDS011;57313;47.040;15.498;2022-09-24T03:24:33;7.18;;;2.60;;
61036;SDS011;57313;47.040;15.498;2022-09-24T03:27:00;8.13;;;2.30;;
61036;SDS011;57313;47.040;15.498;2022-09-24T03:29:28;7.45;;;2.55;;
61036;SDS011;57313;47.040;15.498;2022-09-24T03:31:55;6.03;;;2.30;;
61036;SDS011;57313;47.040;15.498;2022-09-24T03:34:22;6.05;;;2.20;;
61036;SDS011;57313;47.040;15.498;2022-09-24T03:36:51;6.13;;;2.45;;
61036;SDS011;57313;47.040;15.498;2022-09-24T03:39:19;5.97;;;2.35;;
61036;SDS011;57313;47.040;15.498;2022-09-24T03:41:46;7.40;;;2.92;;
61036;SDS011;57313;47.040;15.498;2022-09-24T03:44:13;8.40;;;3.10;;
61036;SDS011;57313;47.040;15.498;2022-09-24T03:46:40;11.18;;;3.00;;
61036;SDS011;57313;47.040;15.498;2022-09-24T03:49:07;5.47;;;2.20;;
61036;SDS011;57313;47.040;15.498;2022-09-24T03:51:35;8.50;;;2.92;;
61036;SDS011;57313;47.040;15.498;2022-09-24T03:54:04;9.15;;;2.70;;
61036;SDS011;57313;47.040;15.498;2022-09-24T03:56:31;7.10;;;2.88;;
61036;SDS011;57313;47.040;15.498;2022-09-24T03:58:59;7.78;;;3.17;;
61036;SDS011;57313;47.040;15.498;2022-09-24T04:01:26;8.18;;;2.92;;
61036;SDS011;57313;47.040;15.498;2022-09-24T04:03:54;6.88;;;2.80;;
61036;SDS011;57313;47.040;15.498;2022-09-24T04:06:21;7.05;;;2.75;;
61036;SDS011;57313;47.040;15.498;2022-09-24T04:08:51;9.23;;;2.75;;
61036;SDS011;57313;47.040;15.498;2022-09-24T04:11:21;8.05;;;2.88;;
61036;SDS011;57313;47.040;15.498;2022-09-24T04:13:48;7.70;;;2.50;;
61036;SDS011;57313;47.040;15.498;2022-09-24T04:16:16;8.75;;;2.92;;
61036;SDS011;57313;47.040;15.498;2022-09-24T04:18:43;7.07;;;2.88;;
61036;SDS011;57313;47.040;15.498;2022-09-24T04:21:11;7.40;;;3.05;;
61036;SDS011;57313;47.040;15.498;2022-09-24T04:23:38;10.05;;;3.63;;
61036;SDS011;57313;47.040;15.498;2022-09-24T04:26:05;16.20;;;5.57;;
61036;SDS011;57313;47.040;15.498;2022-09-24T04:28:35;14.63;;;5.55;;
61036;SDS011;57313;47.040;15.498;2022-09-24T04:31:03;12.45;;;4.15;;
61036;SDS011;57313;47.040;15.498;2022-09-24T04:33:30;8.77;;;3.17;;
61036;SDS011;57313;47.040;15.498;2022-09-24T04:35:57;9.07;;;2.55;;
61036;SDS011;57313;47.040;15.498;2022-09-24T04:38:25;8.90;;;2.75;;
61036;SDS011;57313;47.040;15.498;2022-09-24T04:40:52;10.50;;;2.80;;
61036;SDS011;57313;47.040;15.498;2022-09-24T04:43:19;11.50;;;3.80;;
61036;SDS011;57313;47.040;15.498;2022-09-24T04:45:48;9.45;;;3.53;;
61036;SDS011;57313;47.040;15.498;2022-09-24T04:48:16;7.90;;;2.85;;
61036;SDS011;57313;47.040;15.498;2022-09-24T04:50:43;8.23;;;2.67;;
61036;SDS011;57313;47.040;15.498;2022-09-24T04:53:12;8.00;;;3.10;;
61036;SDS011;57313;47.040;15.498;2022-09-24T04:55:39;7.13;;;3.15;;
61036;SDS011;57313;47.040;15.498;2022-09-24T04:58:06;8.82;;;3.00;;
61036;SDS011;57313;47.040;15.498;2022-09-24T05:00:34;7.82;;;3.17;;
61036;SDS011;57313;47.040;15.498;2022-09-24T05:03:03;7.40;;;2.95;;
61036;SDS011;57313;47.040;15.498;2022-09-24T05:05:31;8.38;;;3.22;;
61036;SDS011;57313;47.040;15.498;2022-09-24T05:07:59;7.03;;;2.88;;
61036;SDS011;57313;47.040;15.498;2022-09-24T05:10:28;7.60;;;3.22;;
61036;SDS011;57313;47.040;15.498;2022-09-24T05:12:56;10.50;;;3.13;;
61036;SDS011;57313;47.040;15.498;2022-09-24T05:15:24;6.47;;;2.70;;
61036;SDS011;57313;47.040;15.498;2022-09-24T05:17:51;8.90;;;3.22;;
61036;SDS011;57313;47.040;15.498;2022-09-24T05:20:20;7.93;;;3.30;;
61036;SDS011;57313;47.040;15.498;2022-09-24T05:22:48;6.95;;;2.95;;
61036;SDS011;57313;47.040;15.498;2022-09-24T05:25:17;7.20;;;2.63;;
61036;SDS011;57313;47.040;15.498;2022-09-24T05:27:45;8.73;;;2.90;;
61036;SDS011;57313;47.040;15.498;2022-09-24T05:30:14;7.82;;;3.00;;
61036;SDS011;57313;47.040;15.498;2022-09-24T05:32:43;7.68;;;2.83;;
61036;SDS011;57313;47.040;15.498;2022-09-24T05:35:11;7.28;;;2.78;;
61036;SDS011;57313;47.040;15.498;2022-09-24T05:37:39;7.13;;;2.95;;
61036;SDS011;57313;47.040;15.498;2022-09-24T05:40:07;6.40;;;2.50;;
61036;SDS011;57313;47.040;15.498;2022-09-24T05:42:35;8.98;;;3.10;;
61036;SDS011;57313;47.040;15.498;2022-09-24T05:45:02;7.20;;;2.80;;
61036;SDS011;57313;47.040;15.498;2022-09-24T05:47:29;7.15;;;2.83;;
61036;SDS011;57313;47.040;15.498;2022-09-24T05:49:57;9.00;;;3.67;;
61036;SDS011;57313;47.040;15.498;2022-09-24T05:52:24;9.45;;;3.67;;
61036;SDS011;57313;47.040;15.498;2022-09-24T05:54:53;8.68;;;4.05;;
61036;SDS011;57313;47.040;15.498;2022-09-24T05:57:20;10.88;;;3.35;;
61036;SDS011;57313;47.040;15.498;2022-09-24T05:59:47;9.23;;;4.38;;
61036;SDS011;57313;47.040;15.498;2022-09-24T06:02:15;11.30;;;4.78;;
61036;SDS011;57313;47.040;15.498;2022-09-24T06:04:42;10.75;;;5.88;;
61036;SDS011;57313;47.040;15.498;2022-09-24T06:07:09;107.80;;;25.55;;
61036;SDS011;57313;47.040;15.498;2022-09-24T06:09:37;63.17;;;17.40;;
61036;SDS011;57313;47.040;15.498;2022-09-24T06:12:07;27.42;;;10.32;;
61036;SDS011;57313;47.040;15.498;2022-09-24T06:14:35;14.45;;;6.22;;
61036;SDS011;57313;47.040;15.498;2022-09-24T06:17:02;15.57;;;7.93;;
61036;SDS011;57313;47.040;15.498;2022-09-24T06:19:30;15.50;;;7.40;;
61036;SDS011;57313;47.040;15.498;2022-09-24T06:21:57;11.68;;;5.65;;
61036;SDS011;57313;47.040;15.498;2022-09-24T06:24:26;12.27;;;5.68;;
61036;SDS011;57313;47.040;15.498;2022-09-24T06:26:53;16.45;;;5.97;;
61036;SDS011;57313;47.040;15.498;2022-09-24T06:29:22;24.42;;;5.50;;
61036;SDS011;57313;47.040;15.498;2022-09-24T06:31:49;13.68;;;5.82;;
61036;SDS011;57313;47.040;15.498;2022-09-24T06:34:18;10.75;;;5.22;;
61036;SDS011;57313;47.040;15.498;2022-09-24T06:36:45;11.45;;;4.68;;
61036;SDS011;57313;47.040;15.498;2022-09-24T06:39:13;11.48;;;4.70;;
61036;SDS011;57313;47.040;15.498;2022-09-24T06:41:40;12.07;;;4.93;;
61036;SDS011;57313;47.040;15.498;2022-09-24T06:44:10;11.98;;;4.97;;
61036;SDS011;57313;47.040;15.498;2022-09-24T06:46:39;10.40;;;5.05;;
61036;SDS011;57313;47.040;15.498;2022-09-24T06:49:06;11.98;;;5.20;;
61036;SDS011;57313;47.040;15.498;2022-09-24T06:51:34;14.43;;;5.70;;
61036;SDS011;57313;47.040;15.498;2022-09-24T06:54:01;9.25;;;4.22;;
61036;SDS011;57313;47.040;15.498;2022-09-24T06:56:28;9.88;;;4.72;;
61036;SDS011;57313;47.040;15.498;2022-09-24T06:58:56;11.13;;;5.47;;
61036;SDS011;57313;47.040;15.498;2022-09-24T07:01:23;18.15;;;6.70;;
61036;SDS011;57313;47.040;15.498;2022-09-24T07:03:55;14.93;;;5.90;;
61036;SDS011;57313;47.040;15.498;2022-09-24T07:06:22;14.88;;;6.18;;
61036;SDS011;57313;47.040;15.498;2022-09-24T07:08:49;11.95;;;5.68;;
61036;SDS011;57313;47.040;15.498;2022-09-24T07:11:17;11.63;;;5.18;;
61036;SDS011;57313;47.040;15.498;2022-09-24T07:13:44;15.02;;;5.45;;
61036;SDS011;57313;47.040;15.498;2022-09-24T07:16:12;11.65;;;5.55;;
61036;SDS011;57313;47.040;15.498;2022-09-24T07:18:40;12.65;;;6.18;;
61036;SDS011;57313;47.040;15.498;2022-09-24T07:21:08;12.60;;;5.60;;
61036;SDS011;57313;47.040;15.498;2022-09-24T07:23:36;12.60;;;5.40;;
61036;SDS011;57313;47.040;15.498;2022-09-24T07:26:03;12.18;;;5.05;;
61036;SDS011;57313;47.040;15.498;2022-09-24T07:28:31;10.55;;;5.10;;
61036;SDS011;57313;47.040;15.498;2022-09-24T07:30:58;13.77;;;5.30;;
61036;SDS011;57313;47.040;15.498;2022-09-24T07:33:26;12.90;;;5.30;;
61036;SDS011;57313;47.040;15.498;2022-09-24T07:35:53;11.85;;;5.20;;
61036;SDS011;57313;47.040;15.498;2022-09-24T07:38:22;12.55;;;5.60;;
61036;SDS011;57313;47.040;15.498;2022-09-24T07:40:49;12.65;;;5.13;;
61036;SDS011;57313;47.040;15.498;2022-09-24T07:43:16;13.15;;;5.00;;
61036;SDS011;57313;47.040;15.498;2022-09-24T07:45:46;14.23;;;6.10;;
61036;SDS011;57313;47.040;15.498;2022-09-24T07:48:14;12.23;;;6.13;;
61036;SDS011;57313;47.040;15.498;2022-09-24T07:50:41;18.20;;;8.05;;
61036;SDS011;57313;47.040;15.498;2022-09-24T07:53:09;14.43;;;6.60;;
61036;SDS011;57313;47.040;15.498;2022-09-24T07:55:37;13.20;;;5.28;;
61036;SDS011;57313;47.040;15.498;2022-09-24T07:58:05;13.23;;;5.68;;
61036;SDS011;57313;47.040;15.498;2022-09-24T08:00:33;12.25;;;5.80;;
61036;SDS011;57313;47.040;15.498;2022-09-24T08:03:01;13.73;;;5.90;;
61036;SDS011;57313;47.040;15.498;2022-09-24T08:05:29;11.90;;;4.78;;
61036;SDS011;57313;47.040;15.498;2022-09-24T08:07:56;10.32;;;4.30;;
61036;SDS011;57313;47.040;15.498;2022-09-24T08:10:25;13.70;;;5.43;;
61036;SDS011;57313;47.040;15.498;2022-09-24T08:12:59;10.80;;;4.68;;
61036;SDS011;57313;47.040;15.498;2022-09-24T08:15:28;11.75;;;5.15;;
61036;SDS011;57313;47.040;15.498;2022-09-24T08:17:59;9.98;;;4.28;;
61036;SDS011;57313;47.040;15.498;2022-09-24T08:20:27;9.93;;;4.70;;
61036;SDS011;57313;47.040;15.498;2022-09-24T08:22:58;11.52;;;4.68;;
61036;SDS011;57313;47.040;15.498;2022-09-24T08:25:26;11.50;;;4.80;;
61036;SDS011;57313;47.040;15.498;2022-09-24T08:27:53;10.27;;;4.38;;
61036;SDS011;57313;47.040;15.498;2022-09-24T08:30:26;11.82;;;4.05;;
61036;SDS011;57313;47.040;15.498;2022-09-24T08:32:54;11.00;;;4.43;;
61036;SDS011;57313;47.040;15.498;2022-09-24T08:35:21;10.05;;;4.18;;
61036;SDS011;57313;47.040;15.498;2022-09-24T08:37:48;10.95;;;4.53;;
61036;SDS011;57313;47.040;15.498;2022-09-24T08:40:16;12.73;;;4.65;;
61036;SDS011;57313;47.040;15.498;2022-09-24T08:42:49;10.23;;;4.53;;
61036;SDS011;57313;47.040;15.498;2022-09-24T08:45:22;9.88;;;4.32;;
61036;SDS011;57313;47.040;15.498;2022-09-24T08:47:51;8.50;;;3.85;;
61036;SDS011;57313;47.040;15.498;2022-09-24T08:50:23;9.23;;;4.13;;
61036;SDS011;57313;47.040;15.498;2022-09-24T08:52:56;11.38;;;4.55;;
61036;SDS011;57313;47.040;15.498;2022-09-24T08:55:34;11.98;;;4.70;;
61036;SDS011;57313;47.040;15.498;2022-09-24T08:58:10;11.35;;;4.80;;
61036;SDS011;57313;47.040;15.498;2022-09-24T09:00:53;10.80;;;4.93;;
61036;SDS011;57313;47.040;15.498;2022-09-24T09:03:27;10.55;;;4.65;;
61036;SDS011;57313;47.040;15.498;2022-09-24T09:06:02;9.77;;;4.47;;
61036;SDS011;57313;47.040;15.498;2022-09-24T09:08:36;9.95;;;4.55;;
61036;SDS011;57313;47.040;15.498;2022-09-24T09:11:32;12.95;;;5.07;;
61036;SDS011;57313;47.040;15.498;2022-09-24T09:14:02;12.20;;;5.00;;
61036;SDS011;57313;47.040;15.498;2022-09-24T09:16:40;10.53;;;4.53;;
61036;SDS011;57313;47.040;15.498;2022-09-24T09:19:12;12.07;;;4.45;;
61036;SDS011;57313;47.040;15.498;2022-09-24T09:21:41;13.95;;;4.55;;
61036;SDS011;57313;47.040;15.498;2022-09-24T09:24:11;9.52;;;4.38;;
61036;SDS011;57313;47.040;15.498;2022-09-24T09:26:42;10.55;;;3.80;;
61036;SDS011;57313;47.040;15.498;2022-09-24T09:29:14;11.75;;;4.50;;
61036;SDS011;57313;47.040;15.498;2022-09-24T09:31:47;10.43;;;4.40;;
61036;SDS011;57313;47.040;15.498;2022-09-24T09:34:31;10.57;;;4.53;;
61036;SDS011;57313;47.040;15.498;2022-09-24T09:37:11;8.82;;;4.18;;
61036;SDS011;57313;47.040;15.498;2022-09-24T09:39:54;10.57;;;4.05;;
61036;SDS011;57313;47.040;15.498;2022-09-24T09:42:28;8.57;;;4.07;;
61036;SDS011;57313;47.040;15.498;2022-09-24T09:44:58;10.20;;;4.00;;
61036;SDS011;57313;47.040;15.498;2022-09-24T09:47:42;10.57;;;4.18;;
61036;SDS011;57313;47.040;15.498;2022-09-24T09:50:16;8.82;;;4.20;;
61036;SDS011;57313;47.040;15.498;2022-09-24T09:52:51;9.13;;;3.97;;
61036;SDS011;57313;47.040;15.498;2022-09-24T09:55:19;10.00;;;4.20;;
61036;SDS011;57313;47.040;15.498;2022-09-24T09:57:49;8.63;;;3.33;;
61036;SDS011;57313;47.040;15.498;2022-09-24T10:00:25;9.38;;;3.78;;
61036;SDS011;57313;47.040;15.498;2022-09-24T10:03:00;11.98;;;3.65;;
61036;SDS011;57313;47.040;15.498;2022-09-24T10:05:28;10.93;;;3.38;;
61036;SDS011;57313;47.040;15.498;2022-09-24T10:07:57;8.55;;;3.30;;
61036;SDS011;57313;47.040;15.498;2022-09-24T10:10:25;7.53;;;2.92;;
61036;SDS011;57313;47.040;15.498;2022-09-24T10:12:53;8.00;;;3.30;;
61036;SDS011;57313;47.040;15.498;2022-09-24T10:15:32;7.97;;;3.10;;
61036;SDS011;57313;47.040;15.498;2022-09-24T10:18:01;8.30;;;3.50;;
61036;SDS011;57313;47.040;15.498;2022-09-24T10:20:29;9.13;;;3.30;;
61036;SDS011;57313;47.040;15.498;2022-09-24T10:23:00;11.75;;;3.33;;
61036;SDS011;57313;47.040;15.498;2022-09-24T10:25:31;9.35;;;3.65;;
61036;SDS011;57313;47.040;15.498;2022-09-24T10:28:01;8.38;;;3.22;;
61036;SDS011;57313;47.040;15.498;2022-09-24T10:30:34;7.75;;;3.10;;
61036;SDS011;57313;47.040;15.498;2022-09-24T10:33:18;10.13;;;3.60;;
61036;SDS011;57313;47.040;15.498;2022-09-24T10:35:46;7.22;;;3.17;;
61036;SDS011;57313;47.040;15.498;2022-09-24T10:38:14;9.77;;;3.20;;
61036;SDS011;57313;47.040;15.498;2022-09-24T10:40:43;8.20;;;3.42;;
61036;SDS011;57313;47.040;15.498;2022-09-24T10:43:15;7.93;;;3.17;;
61036;SDS011;57313;47.040;15.498;2022-09-24T10:48:43;9.18;;;3.25;;
61036;SDS011;57313;47.040;15.498;2022-09-24T10:51:20;8.32;;;3.08;;
61036;SDS011;57313;47.040;15.498;2022-09-24T10:53:58;8.07;;;3.33;;
61036;SDS011;57313;47.040;15.498;2022-09-24T10:56:42;7.65;;;3.40;;
61036;SDS011;57313;47.040;15.498;2022-09-24T10:59:17;8.13;;;3.10;;
61036;SDS011;57313;47.040;15.498;2022-09-24T11:01:58;8.52;;;3.05;;
61036;SDS011;57313;47.040;15.498;2022-09-24T11:04:50;10.48;;;3.10;;
61036;SDS011;57313;47.040;15.498;2022-09-24T11:07:31;6.63;;;2.67;;
61036;SDS011;57313;47.040;15.498;2022-09-24T11:10:22;7.53;;;2.90;;
61036;SDS011;57313;47.040;15.498;2022-09-24T11:13:04;7.97;;;2.63;;
61036;SDS011;57313;47.040;15.498;2022-09-24T11:15:50;7.68;;;2.78;;
61036;SDS011;57313;47.040;15.498;2022-09-24T11:18:35;6.22;;;2.50;;
61036;SDS011;57313;47.040;15.498;2022-09-24T11:21:19;6.72;;;2.60;;
61036;SDS011;57313;47.040;15.498;2022-09-24T11:24:09;6.43;;;2.22;;
61036;SDS011;57313;47.040;15.498;2022-09-24T11:26:58;8.98;;;2.58;;
61036;SDS011;57313;47.040;15.498;2022-09-24T11:29:39;7.75;;;2.30;;
61036;SDS011;57313;47.040;15.498;2022-09-24T11:32:17;7.20;;;2.70;;
61036;SDS011;57313;47.040;15.498;2022-09-24T11:34:55;7.97;;;2.63;;
61036;SDS011;57313;47.040;15.498;2022-09-24T11:37:45;6.55;;;2.63;;
61036;SDS011;57313;47.040;15.498;2022-09-24T11:40:32;6.43;;;2.25;;
61036;SDS011;57313;47.040;15.498;2022-09-24T11:43:28;6.82;;;2.40;;
61036;SDS011;57313;47.040;15.498;2022-09-24T11:46:18;6.60;;;2.30;;
61036;SDS011;57313;47.040;15.498;2022-09-24T11:49:07;6.50;;;2.03;;
61036;SDS011;57313;47.040;15.498;2022-09-24T11:51:47;8.05;;;2.78;;
61036;SDS011;57313;47.040;15.498;2022-09-24T11:54:23;7.55;;;2.40;;
61036;SDS011;57313;47.040;15.498;2022-09-24T11:56:56;6.13;;;2.15;;
61036;SDS011;57313;47.040;15.498;2022-09-24T11:59:33;6.00;;;1.98;;
61036;SDS011;57313;47.040;15.498;2022-09-24T12:02:12;6.35;;;2.30;;
61036;SDS011;57313;47.040;15.498;2022-09-24T12:04:45;6.10;;;2.28;;
61036;SDS011;57313;47.040;15.498;2022-09-24T12:07:20;5.80;;;2.10;;
61036;SDS011;57313;47.040;15.498;2022-09-24T12:09:54;5.53;;;2.03;;
61036;SDS011;57313;47.040;15.498;2022-09-24T12:12:26;5.72;;;2.20;;
61036;SDS011;57313;47.040;15.498;2022-09-24T12:14:59;6.07;;;2.38;;
61036;SDS011;57313;47.040;15.498;2022-09-24T12:17:32;5.70;;;2.00;;
61036;SDS011;57313;47.040;15.498;2022-09-24T12:20:07;6.38;;;2.30;;
61036;SDS011;57313;47.040;15.498;2022-09-24T12:22:41;6.32;;;2.25;;
61036;SDS011;57313;47.040;15.498;2022-09-24T12:25:12;6.53;;;2.35;;
61036;SDS011;57313;47.040;15.498;2022-09-24T12:27:40;6.90;;;2.38;;
61036;SDS011;57313;47.040;15.498;2022-09-24T12:30:14;5.95;;;2.10;;
61036;SDS011;57313;47.040;15.498;2022-09-24T12:32:51;8.45;;;3.17;;
61036;SDS011;57313;47.040;15.498;2022-09-24T12:38:13;6.68;;;2.42;;
61036;SDS011;57313;47.040;15.498;2022-09-24T12:43:44;7.63;;;1.90;;
61036;SDS011;57313;47.040;15.498;2022-09-24T12:46:18;5.22;;;1.90;;
61036;SDS011;57313;47.040;15.498;2022-09-24T12:48:47;6.25;;;2.20;;
61036;SDS011;57313;47.040;15.498;2022-09-24T12:51:16;6.53;;;2.13;;
61036;SDS011;57313;47.040;15.498;2022-09-24T12:53:53;6.53;;;2.10;;
61036;SDS011;57313;47.040;15.498;2022-09-24T12:56:24;7.97;;;2.40;;
61036;SDS011;57313;47.040;15.498;2022-09-24T12:58:56;5.20;;;2.05;;
61036;SDS011;57313;47.040;15.498;2022-09-24T13:01:27;6.68;;;2.58;;
61036;SDS011;57313;47.040;15.498;2022-09-24T13:04:04;8.05;;;3.38;;
61036;SDS011;57313;47.040;15.498;2022-09-24T13:06:47;7.07;;;2.63;;
61036;SDS011;57313;47.040;15.498;2022-09-24T13:09:22;6.70;;;2.33;;
61036;SDS011;57313;47.040;15.498;2022-09-24T13:12:03;6.78;;;2.63;;
61036;SDS011;57313;47.040;15.498;2022-09-24T13:14:48;8.57;;;2.72;;
61036;SDS011;57313;47.040;15.498;2022-09-24T13:17:20;7.78;;;2.72;;
61036;SDS011;57313;47.040;15.498;2022-09-24T13:19:49;6.05;;;2.45;;
61036;SDS011;57313;47.040;15.498;2022-09-24T13:22:24;6.45;;;2.40;;
61036;SDS011;57313;47.040;15.498;2022-09-24T13:25:07;5.95;;;2.25;;
61036;SDS011;57313;47.040;15.498;2022-09-24T13:27:53;6.63;;;2.17;;
61036;SDS011;57313;47.040;15.498;2022-09-24T13:30:25;7.80;;;2.47;;
61036;SDS011;57313;47.040;15.498;2022-09-24T13:33:00;6.45;;;2.30;;
61036;SDS011;57313;47.040;15.498;2022-09-24T13:35:30;6.97;;;2.40;;
61036;SDS011;57313;47.040;15.498;2022-09-24T13:38:02;6.10;;;2.08;;
61036;SDS011;57313;47.040;15.498;2022-09-24T13:40:37;6.07;;;2.20;;
61036;SDS011;57313;47.040;15.498;2022-09-24T13:43:12;6.43;;;2.30;;
61036;SDS011;57313;47.040;15.498;2022-09-24T13:45:44;9.77;;;2.70;;
61036;SDS011;57313;47.040;15.498;2022-09-24T13:48:14;7.07;;;2.47;;
61036;SDS011;57313;47.040;15.498;2022-09-24T13:50:51;6.13;;;2.35;;
61036;SDS011;57313;47.040;15.498;2022-09-24T13:53:21;6.10;;;2.35;;
61036;SDS011;57313;47.040;15.498;2022-09-24T13:55:56;6.93;;;2.58;;
61036;SDS011;57313;47.040;15.498;2022-09-24T13:58:28;6.60;;;2.50;;
61036;SDS011;57313;47.040;15.498;2022-09-24T14:00:56;6.03;;;2.50;;
61036;SDS011;57313;47.040;15.498;2022-09-24T14:03:27;9.07;;;2.80;;
61036;SDS011;57313;47.040;15.498;2022-09-24T14:05:56;7.55;;;3.05;;
61036;SDS011;57313;47.040;15.498;2022-09-24T14:08:24;11.50;;;3.67;;
61036;SDS011;57313;47.040;15.498;2022-09-24T14:11:05;9.85;;;2.80;;
61036;SDS011;57313;47.040;15.498;2022-09-24T14:13:42;6.57;;;2.58;;
61036;SDS011;57313;47.040;15.498;2022-09-24T14:16:09;6.50;;;2.47;;
61036;SDS011;57313;47.040;15.498;2022-09-24T14:18:41;6.90;;;2.60;;
61036;SDS011;57313;47.040;15.498;2022-09-24T14:21:09;7.85;;;2.72;;
61036;SDS011;57313;47.040;15.498;2022-09-24T14:23:41;8.02;;;2.50;;
61036;SDS011;57313;47.040;15.498;2022-09-24T14:26:17;7.95;;;2.78;;
61036;SDS011;57313;47.040;15.498;2022-09-24T14:28:54;8.57;;;2.53;;
61036;SDS011;57313;47.040;15.498;2022-09-24T14:31:24;6.45;;;2.42;;
61036;SDS011;57313;47.040;15.498;2022-09-24T14:33:51;7.97;;;2.97;;
61036;SDS011;57313;47.040;15.498;2022-09-24T14:36:19;7.68;;;3.40;;
61036;SDS011;57313;47.040;15.498;2022-09-24T14:38:50;12.52;;;6.53;;
61036;SDS011;57313;47.040;15.498;2022-09-24T14:41:24;11.05;;;5.15;;
61036;SDS011;57313;47.040;15.498;2022-09-24T14:43:59;8.75;;;3.08;;
61036;SDS011;57313;47.040;15.498;2022-09-24T14:46:30;7.97;;;3.33;;
61036;SDS011;57313;47.040;15.498;2022-09-24T14:49:04;7.95;;;3.67;;
61036;SDS011;57313;47.040;15.498;2022-09-24T14:51:34;8.88;;;3.00;;
61036;SDS011;57313;47.040;15.498;2022-09-24T14:54:02;8.15;;;3.38;;
61036;SDS011;57313;47.040;15.498;2022-09-24T14:56:48;7.50;;;3.28;;
61036;SDS011;57313;47.040;15.498;2022-09-24T14:59:27;7.97;;;3.03;;
61036;SDS011;57313;47.040;15.498;2022-09-24T15:02:03;8.38;;;3.35;;
61036;SDS011;57313;47.040;15.498;2022-09-24T15:04:39;7.60;;;3.00;;
61036;SDS011;57313;47.040;15.498;2022-09-24T15:07:13;9.25;;;3.10;;